Time;durP1;ratioP1;P1;durP2;ratioP2;P2;SDS_P1;SDS_P2;PMS_P1;PMS_P2;Temp;Humidity;BMP_temperature;BMP_pressure;BME280_temperature;BME280_humidity;BME280_pressure;Samples;Min_cycle;Max_cycle;Signal;HPM_P1;HPM_P2
2022/03/07 00:01:33;;;;;;;33.17;15.20;;;;;;;-0.45;59.29;100561.91;4408965;32;20093;-77
2022/03/07 00:04:02;;;;;;;28.25;15.02;;;;;;;-0.46;59.33;100567.03;4423462;32;20429;-76
2022/03/07 00:06:29;;;;;;;33.78;15.10;;;;;;;-0.48;59.33;100564.41;4423389;32;20497;-77
2022/03/07 00:08:58;;;;;;;31.70;15.38;;;;;;;-0.46;59.25;100564.44;4409487;32;20098;-77
2022/03/07 00:11:26;;;;;;;26.40;14.85;;;;;;;-0.51;59.43;100570.34;4423338;32;20199;-77
2022/03/07 00:13:53;;;;;;;27.87;14.68;;;;;;;-0.52;59.44;100571.16;4423437;32;20139;-77
2022/03/07 00:16:20;;;;;;;31.37;15.02;;;;;;;-0.52;59.42;100576.34;4423265;32;20534;-77
2022/03/07 00:18:48;;;;;;;32.03;14.65;;;;;;;-0.52;59.56;100578.94;4423389;32;20184;-76
2022/03/07 00:21:15;;;;;;;28.00;14.07;;;;;;;-0.54;59.56;100572.81;4423443;32;20089;-77
2022/03/07 00:23:42;;;;;;;27.90;15.32;;;;;;;-0.52;59.72;100575.47;4423410;32;20093;-76
2022/03/07 00:26:10;;;;;;;25.30;13.98;;;;;;;-0.45;59.34;100576.56;4423467;32;20172;-77
2022/03/07 00:28:37;;;;;;;31.77;16.05;;;;;;;-0.41;59.18;100578.44;4408759;32;20491;-77
2022/03/07 00:31:06;;;;;;;30.33;14.65;;;;;;;-0.41;59.24;100586.22;4423287;32;20166;-77
2022/03/07 00:33:34;;;;;;;27.87;13.43;;;;;;;-0.44;59.41;100586.97;4423239;32;20480;-77
2022/03/07 00:36:02;;;;;;;30.42;14.48;;;;;;;-0.40;59.16;100580.19;4423257;32;20096;-77
2022/03/07 00:38:29;;;;;;;28.77;15.45;;;;;;;-0.39;59.10;100582.84;4423451;32;20154;-77
2022/03/07 00:40:58;;;;;;;27.20;13.88;;;;;;;-0.38;59.12;100583.72;4408773;32;20077;-76
2022/03/07 00:43:25;;;;;;;29.30;14.50;;;;;;;-0.37;59.06;100586.34;4423192;32;20115;-77
2022/03/07 00:45:53;;;;;;;32.78;14.45;;;;;;;-0.44;59.21;100576.63;4423077;32;20108;-76
2022/03/07 00:48:20;;;;;;;27.37;14.60;;;;;;;-0.45;59.29;100580.03;4423161;32;20385;-77
2022/03/07 00:50:50;;;;;;;28.87;14.93;;;;;;;-0.45;59.44;100581.75;4423012;32;20098;-76
2022/03/07 00:53:21;;;;;;;30.67;15.10;;;;;;;-0.44;59.28;100584.38;4423251;32;20127;-76
2022/03/07 00:55:50;;;;;;;27.95;14.43;;;;;;;-0.43;59.36;100583.53;4408972;32;20161;-76
2022/03/07 00:58:18;;;;;;;29.35;14.63;;;;;;;-0.46;59.31;100591.19;4423046;32;20089;-77
2022/03/07 01:00:45;;;;;;;28.33;14.60;;;;;;;-0.43;59.35;100599.06;4423014;32;20737;-76
2022/03/07 01:03:16;;;;;;;33.05;15.52;;;;;;;-0.53;59.78;100609.91;4422987;32;20422;-76
2022/03/07 01:05:44;;;;;;;32.17;15.20;;;;;;;-0.64;60.41;100611.25;4423061;32;20136;-76
2022/03/07 01:08:15;;;;;;;29.17;14.52;;;;;;;-0.56;60.62;100609.84;4422872;32;20452;-76
2022/03/07 01:10:43;;;;;;;30.02;14.90;;;;;;;-0.57;60.86;100606.34;4422851;32;20420;-76
2022/03/07 01:13:10;;;;;;;25.85;13.98;;;;;;;-0.53;61.02;100605.66;4422797;32;20123;-76
2022/03/07 01:15:38;;;;;;;26.05;13.77;;;;;;;-0.58;61.58;100603.72;4422684;32;20092;-76
2022/03/07 01:18:05;;;;;;;30.33;13.75;;;;;;;-0.54;61.12;100614.22;4422963;32;20082;-76
2022/03/07 01:20:33;;;;;;;27.27;14.55;;;;;;;-0.57;61.25;100602.87;4408236;32;20098;-76
2022/03/07 01:23:01;;;;;;;25.08;13.62;;;;;;;-0.56;61.18;100604.66;4422774;32;20163;-76
2022/03/07 01:25:29;;;;;;;26.95;14.02;;;;;;;-0.51;60.71;100606.56;4422576;32;20184;-76
2022/03/07 01:27:56;;;;;;;26.95;14.77;;;;;;;-0.57;60.86;100601.16;4422637;32;20198;-76
2022/03/07 01:30:23;;;;;;;28.00;14.70;;;;;;;-0.66;61.21;100595.66;4422602;32;20405;-76
2022/03/07 01:32:54;;;;;;;32.35;14.15;;;;;;;-0.68;61.33;100602.47;4422481;32;20787;-76
2022/03/07 01:35:24;;;;;;;27.20;14.50;;;;;;;-0.59;60.91;100608.00;4422440;32;20126;-76
2022/03/07 01:37:52;;;;;;;35.75;15.63;;;;;;;-0.62;60.95;100610.47;4422599;32;20403;-76
2022/03/07 01:40:19;;;;;;;43.80;16.00;;;;;;;-0.65;61.10;100606.91;4423968;32;20089;-76
2022/03/07 01:42:47;;;;;;;33.72;14.93;;;;;;;-0.69;61.69;100608.50;4424419;32;20170;-76
2022/03/07 01:45:17;;;;;;;28.52;14.55;;;;;;;-0.77;62.01;100615.09;4424371;32;20204;-76
2022/03/07 01:47:46;;;;;;;27.20;13.38;;;;;;;-0.78;61.51;100605.56;4424626;32;20145;-76
2022/03/07 01:50:16;;;;;;;30.48;14.07;;;;;;;-0.72;61.22;100613.56;4424323;32;20090;-76
2022/03/07 01:52:47;;;;;;;28.87;14.82;;;;;;;-0.67;60.85;100604.28;4424718;32;20179;-76
2022/03/07 01:55:16;;;;;;;28.42;14.90;;;;;;;-0.54;60.31;100603.88;4424306;32;20101;-76
2022/03/07 01:57:46;;;;;;;32.72;14.27;;;;;;;-0.55;60.18;100606.41;4424504;32;20085;-76
2022/03/07 02:00:19;;;;;;;28.23;13.82;;;;;;;-0.58;59.83;100607.19;4424585;32;20123;-76
2022/03/07 02:02:47;;;;;;;30.02;13.60;;;;;;;-0.60;60.32;100608.84;4424342;32;20396;-76
2022/03/07 02:05:15;;;;;;;31.45;14.35;;;;;;;-0.66;60.94;100611.19;4424474;32;20109;-76
2022/03/07 02:07:44;;;;;;;30.42;14.13;;;;;;;-0.67;60.96;100609.44;4424218;32;20087;-76
2022/03/07 02:10:13;;;;;;;27.70;14.38;;;;;;;-0.59;61.04;100608.00;4424610;32;20112;-76
2022/03/07 02:12:41;;;;;;;29.98;14.77;;;;;;;-0.64;61.22;100606.06;4424080;32;20101;-77
2022/03/07 02:15:09;;;;;;;27.40;14.48;;;;;;;-0.50;59.74;100599.69;4424305;32;20109;-77
2022/03/07 02:17:37;;;;;;;31.23;14.65;;;;;;;-0.60;60.93;100602.75;4424476;32;20822;-77
2022/03/07 02:20:05;;;;;;;30.25;15.45;;;;;;;-0.66;60.56;100595.66;4424363;32;20101;-76
2022/03/07 02:22:36;;;;;;;26.80;15.10;;;;;;;-0.78;60.96;100601.28;4424500;32;20112;-76
2022/03/07 02:25:05;;;;;;;32.90;14.68;;;;;;;-0.74;61.48;100594.53;4424335;32;20134;-76
2022/03/07 02:27:34;;;;;;;29.55;14.85;;;;;;;-0.96;61.81;100596.28;4424494;32;20437;-76
2022/03/07 02:30:05;;;;;;;24.63;13.98;;;;;;;-1.02;61.88;100593.47;4424465;32;20097;-76
2022/03/07 02:32:33;;;;;;;29.58;15.50;;;;;;;-1.04;62.06;100600.28;4410370;32;20127;-77
2022/03/07 02:35:02;;;;;;;29.95;15.77;;;;;;;-1.05;62.41;100595.06;4424322;32;20101;-76
2022/03/07 02:37:30;;;;;;;33.20;15.70;;;;;;;-1.13;62.51;100593.88;4424274;32;20089;-76
2022/03/07 02:39:57;;;;;;;29.08;16.12;;;;;;;-1.15;62.63;100593.81;4424613;32;20167;-76
2022/03/07 02:42:36;;;;;;;30.80;16.23;;;;;;;-1.18;62.94;100595.41;4424484;32;20085;-76
2022/03/07 02:45:05;;;;;;;33.67;16.70;;;;;;;-1.23;63.26;100592.66;4424159;32;20469;-76
2022/03/07 02:47:32;;;;;;;30.00;16.10;;;;;;;-1.26;63.63;100596.00;4410250;32;20111;-76
2022/03/07 02:49:59;;;;;;;32.10;16.90;;;;;;;-1.28;63.80;100605.38;4424345;32;20166;-76
2022/03/07 02:52:27;;;;;;;33.88;16.42;;;;;;;-1.33;63.89;100600.88;4424276;32;20097;-76
2022/03/07 02:54:54;;;;;;;37.72;17.95;;;;;;;-1.43;64.53;100603.91;4424237;32;20131;-76
2022/03/07 02:57:22;;;;;;;37.13;16.95;;;;;;;-1.44;64.59;100605.63;4409825;32;20155;-76
2022/03/07 02:59:54;;;;;;;35.30;17.70;;;;;;;-1.53;64.98;100613.00;4424243;32;20235;-76
2022/03/07 03:02:21;;;;;;;39.25;17.37;;;;;;;-1.60;64.88;100601.53;4409804;32;20101;-76
2022/03/07 03:04:48;;;;;;;38.38;18.73;;;;;;;-1.59;65.14;100610.16;4424156;32;20127;-76
2022/03/07 03:07:16;;;;;;;37.22;18.67;;;;;;;-1.62;65.27;100603.19;4424194;32;20511;-76
2022/03/07 03:09:45;;;;;;;34.97;18.35;;;;;;;-1.65;65.37;100604.75;4424234;32;20093;-76
2022/03/07 03:12:12;;;;;;;35.05;18.12;;;;;;;-1.69;65.43;100606.34;4423920;32;20093;-76
2022/03/07 03:14:40;;;;;;;42.22;20.17;;;;;;;-1.67;65.53;100601.22;4409659;32;20106;-76
2022/03/07 03:17:07;;;;;;;39.20;18.58;;;;;;;-1.72;65.68;100609.66;4423896;32;20070;-76
2022/03/07 03:19:34;;;;;;;33.97;17.83;;;;;;;-1.70;65.73;100610.63;4424005;32;20439;-75
2022/03/07 03:22:02;;;;;;;36.97;19.40;;;;;;;-1.72;65.82;100603.63;4409743;32;20089;-73
2022/03/07 03:24:29;;;;;;;35.85;18.92;;;;;;;-1.74;65.78;100613.87;4424014;32;20093;-73
2022/03/07 03:26:57;;;;;;;36.97;18.77;;;;;;;-1.76;66.14;100604.31;4409387;32;20407;-73
2022/03/07 03:29:24;;;;;;;39.58;20.17;;;;;;;-1.80;66.28;100607.56;4423869;32;20098;-74
2022/03/07 03:31:51;;;;;;;38.00;18.87;;;;;;;-1.81;66.40;100617.03;4423967;32;20177;-74
2022/03/07 03:34:18;;;;;;;37.30;19.12;;;;;;;-1.83;66.73;100634.19;4423876;32;20226;-74
2022/03/07 03:36:46;;;;;;;42.00;19.70;;;;;;;-1.92;67.35;100624.31;4409640;32;20073;-74
2022/03/07 03:39:13;;;;;;;31.25;17.80;;;;;;;-1.97;67.18;100623.28;4409497;32;20517;-74
2022/03/07 03:41:41;;;;;;;34.78;17.85;;;;;;;-1.96;67.47;100627.59;4423518;32;20158;-73
2022/03/07 03:44:09;;;;;;;36.35;19.02;;;;;;;-2.00;67.68;100617.09;4423581;32;20530;-74
2022/03/07 03:46:37;;;;;;;41.63;19.50;;;;;;;-2.04;67.90;100622.94;4423933;32;20153;-73
2022/03/07 03:49:04;;;;;;;38.53;19.83;;;;;;;-2.03;67.82;100629.87;4409427;32;20188;-73
2022/03/07 03:51:34;;;;;;;36.45;18.65;;;;;;;-2.02;67.72;100629.03;4423565;32;20149;-73
2022/03/07 03:54:01;;;;;;;34.13;18.48;;;;;;;-2.08;68.17;100626.22;4409552;32;20113;-73
2022/03/07 03:56:28;;;;;;;35.67;19.12;;;;;;;-2.02;68.09;100631.62;4423564;32;20085;-73
2022/03/07 03:58:56;;;;;;;37.28;19.40;;;;;;;-2.06;68.05;100628.03;4409367;32;20090;-73
2022/03/07 04:01:23;;;;;;;42.25;19.40;;;;;;;-2.11;68.29;100636.41;4423014;32;20578;-73
2022/03/07 04:03:51;;;;;;;41.95;20.50;;;;;;;-2.08;68.08;100637.44;4423415;32;20579;-73
2022/03/07 04:06:18;;;;;;;39.97;21.05;;;;;;;-2.14;68.04;100642.31;4423631;32;20099;-73
2022/03/07 04:08:55;;;;;;;41.37;21.87;;;;;;;-2.17;68.23;100635.31;4396519;32;20109;-74
2022/03/07 04:11:32;;;;;;;35.47;19.80;;;;;;;-2.18;68.34;100630.09;4409115;32;20102;-74
2022/03/07 04:13:59;;;;;;;38.60;20.02;;;;;;;-2.26;68.93;100641.78;4423569;32;20097;-74
2022/03/07 04:16:26;;;;;;;38.50;19.37;;;;;;;-2.31;69.08;100636.41;4409087;32;20090;-74
2022/03/07 04:18:54;;;;;;;40.12;19.85;;;;;;;-2.32;69.50;100646.69;4423506;32;20450;-74
2022/03/07 04:21:22;;;;;;;40.42;20.55;;;;;;;-2.43;69.72;100644.50;4423333;32;20129;-74
2022/03/07 04:23:49;;;;;;;39.42;20.45;;;;;;;-2.35;69.54;100651.72;4423396;32;20105;-74
2022/03/07 04:26:17;;;;;;;40.60;20.52;;;;;;;-2.36;69.63;100647.37;4423228;32;20128;-74
2022/03/07 04:28:44;;;;;;;38.65;19.20;;;;;;;-2.41;69.67;100650.59;4423374;32;20124;-74
2022/03/07 04:31:11;;;;;;;38.75;19.15;;;;;;;-2.39;69.75;100649.81;4423267;32;20085;-74
2022/03/07 04:33:38;;;;;;;35.58;18.50;;;;;;;-2.36;69.64;100643.09;4423191;32;20181;-74
2022/03/07 04:36:06;;;;;;;42.20;19.33;;;;;;;-2.32;69.74;100644.09;4428750;32;20156;-74
2022/03/07 04:38:34;;;;;;;37.85;18.87;;;;;;;-2.28;69.76;100643.41;4427061;32;20170;-74
2022/03/07 04:41:02;;;;;;;41.53;18.90;;;;;;;-2.27;69.68;100647.75;4423024;32;20101;-74
2022/03/07 04:43:32;;;;;;;37.15;19.70;;;;;;;-2.28;69.53;100646.00;4424072;32;20523;-74
2022/03/07 04:46:00;;;;;;;35.35;18.48;;;;;;;-2.30;68.89;100645.91;4423818;32;20436;-74
2022/03/07 04:48:27;;;;;;;41.80;20.08;;;;;;;-2.29;69.06;100652.88;4423761;32;20107;-74
2022/03/07 04:50:54;;;;;;;38.53;19.05;;;;;;;-2.27;69.17;100650.34;4423660;32;20097;-74
2022/03/07 04:53:22;;;;;;;37.85;19.25;;;;;;;-2.24;68.90;100648.78;4423201;32;20100;-74
2022/03/07 04:55:49;;;;;;;46.10;20.45;;;;;;;-2.20;68.82;100650.66;4423154;32;20081;-74
2022/03/07 04:58:16;;;;;;;40.15;19.27;;;;;;;-2.23;69.04;100654.81;4423107;32;20098;-74
2022/03/07 05:00:43;;;;;;;36.88;19.05;;;;;;;-2.28;69.43;100658.91;4408590;32;20101;-74
2022/03/07 05:03:11;;;;;;;40.75;19.73;;;;;;;-2.24;69.14;100650.47;4396228;32;20444;-74
2022/03/07 05:05:39;;;;;;;40.58;20.02;;;;;;;-2.25;69.21;100651.31;4422905;32;20089;-74
2022/03/07 05:08:06;;;;;;;41.03;19.95;;;;;;;-2.28;69.33;100646.00;4409042;32;20094;-74
2022/03/07 05:10:33;;;;;;;41.97;20.17;;;;;;;-2.25;69.41;100644.44;4423532;32;20602;-76
2022/03/07 05:13:00;;;;;;;40.12;19.62;;;;;;;-2.27;69.73;100651.22;4421018;32;20109;-76
2022/03/07 05:15:28;;;;;;;36.05;18.98;;;;;;;-2.27;69.45;100645.19;4423701;32;20104;-74
2022/03/07 05:17:56;;;;;;;45.83;20.12;;;;;;;-2.23;69.38;100647.94;4410067;32;20597;-74
2022/03/07 05:20:25;;;;;;;46.17;20.90;;;;;;;-2.24;69.62;100651.34;4424162;32;20120;-74
2022/03/07 05:23:13;;;;;;;41.60;20.15;;;;;;;-2.24;69.34;100650.47;4424555;32;20117;-74
2022/03/07 05:25:40;;;;;;;38.80;19.62;;;;;;;-2.20;69.71;100649.78;4424367;32;20089;-74
2022/03/07 05:28:07;;;;;;;40.50;20.00;;;;;;;-2.16;69.78;100654.25;4424544;32;20452;-74
2022/03/07 05:30:35;;;;;;;46.10;20.70;;;;;;;-2.15;69.32;100650.00;4431040;32;20131;-74
2022/03/07 05:33:02;;;;;;;38.45;19.90;;;;;;;-2.16;69.51;100649.09;4439628;32;20104;-74
2022/03/07 05:35:29;;;;;;;39.80;19.67;;;;;;;-2.10;69.48;100656.25;4425628;32;20153;-74
2022/03/07 05:37:57;;;;;;;38.67;21.73;;;;;;;-2.16;69.81;100651.69;4439851;32;20617;-74
2022/03/07 05:40:24;;;;;;;44.72;21.12;;;;;;;-2.12;69.64;100656.19;4425265;32;20430;-74
2022/03/07 05:42:52;;;;;;;43.50;21.90;;;;;;;-2.16;69.87;100654.25;4439750;32;20161;-74
2022/03/07 05:45:20;;;;;;;49.30;21.77;;;;;;;-2.17;69.60;100658.53;4425852;32;20682;-74
2022/03/07 05:47:47;;;;;;;47.33;21.92;;;;;;;-2.12;69.31;100661.34;4439880;32;20089;-74
2022/03/07 05:50:14;;;;;;;44.08;20.35;;;;;;;-2.10;69.58;100656.25;4439785;32;20492;-74
2022/03/07 05:52:42;;;;;;;40.80;19.73;;;;;;;-2.10;69.59;100654.53;4439939;32;20144;-74
2022/03/07 05:55:10;;;;;;;46.40;21.80;;;;;;;-2.03;69.19;100658.28;4439707;32;20086;-74
2022/03/07 05:57:38;;;;;;;43.05;21.23;;;;;;;-2.05;68.93;100658.22;4439470;32;20089;-74
2022/03/07 06:00:08;;;;;;;42.78;20.35;;;;;;;-1.96;68.69;100657.72;4440059;32;20424;-74
2022/03/07 06:02:36;;;;;;;51.88;22.02;;;;;;;-1.90;69.31;100664.84;4425186;32;20128;-74
2022/03/07 06:05:04;;;;;;;42.88;20.92;;;;;;;-1.93;69.13;100656.16;4439465;32;20081;-74
2022/03/07 06:07:31;;;;;;;50.50;22.25;;;;;;;-1.92;68.93;100660.47;4439835;32;20115;-75
2022/03/07 06:09:59;;;;;;;41.60;21.25;;;;;;;-1.85;68.95;100663.34;4424900;32;20173;-74
2022/03/07 06:12:26;;;;;;;40.97;20.55;;;;;;;-1.81;68.64;100662.62;4436143;32;20173;-75
2022/03/07 06:14:54;;;;;;;43.20;20.45;;;;;;;-1.85;68.42;100666.78;4432824;32;20093;-74
2022/03/07 06:17:21;;;;;;;43.72;21.80;;;;;;;-1.84;68.30;100663.38;4431678;32;20476;-75
2022/03/07 06:19:48;;;;;;;46.35;22.95;;;;;;;-1.82;68.47;100671.22;4431506;32;20101;-74
2022/03/07 06:22:16;;;;;;;44.05;21.20;;;;;;;-1.77;68.12;100674.84;4418689;32;20104;-74
2022/03/07 06:24:43;;;;;;;46.67;20.55;;;;;;;-1.70;68.46;100676.88;4431586;32;20117;-75
2022/03/07 06:27:10;;;;;;;51.92;22.42;;;;;;;-1.66;68.18;100677.91;4433298;32;20093;-75
2022/03/07 06:29:37;;;;;;;45.50;22.37;;;;;;;-1.71;68.10;100672.53;4424390;32;20093;-75
2022/03/07 06:32:05;;;;;;;64.57;21.48;;;;;;;-1.62;67.83;100670.34;4424115;32;20447;-74
2022/03/07 06:34:33;;;;;;;41.63;20.08;;;;;;;-1.53;67.90;100686.22;4409886;32;20437;-75
2022/03/07 06:37:01;;;;;;;45.00;21.12;;;;;;;-1.52;67.33;100682.84;4424365;32;20093;-74
2022/03/07 06:39:29;;;;;;;44.15;21.85;;;;;;;-1.45;67.33;100695.19;4424183;32;20097;-75
2022/03/07 06:41:56;;;;;;;43.13;21.15;;;;;;;-1.35;67.19;100692.97;4423894;32;20448;-75
2022/03/07 06:44:24;;;;;;;45.47;19.75;;;;;;;-1.35;66.71;100701.59;4423783;32;20378;-75
2022/03/07 06:46:51;;;;;;;42.25;21.60;;;;;;;-1.35;67.08;100696.44;4424257;32;20114;-75
2022/03/07 06:49:18;;;;;;;42.30;19.98;;;;;;;-1.30;66.78;100688.88;4423786;32;20124;-74
2022/03/07 06:51:45;;;;;;;40.17;20.48;;;;;;;-1.24;66.98;100695.19;4423816;32;20116;-74
2022/03/07 06:54:13;;;;;;;44.35;20.08;;;;;;;-1.15;66.39;100689.50;4423721;32;20194;-75
2022/03/07 06:56:40;;;;;;;41.58;19.05;;;;;;;-1.14;66.03;100685.19;4423798;32;20089;-75
2022/03/07 06:59:07;;;;;;;51.45;22.55;;;;;;;-1.14;65.78;100683.50;4423650;32;20785;-75
2022/03/07 07:01:35;;;;;;;48.03;21.27;;;;;;;-1.09;66.05;100696.62;4423933;32;20096;-75
2022/03/07 07:04:02;;;;;;;51.28;22.17;;;;;;;-1.09;66.05;100687.16;4423638;32;20168;-75
2022/03/07 07:06:29;;;;;;;53.55;21.50;;;;;;;-0.88;65.45;100699.16;4410683;32;20093;-74
2022/03/07 07:08:57;;;;;;;58.67;22.40;;;;;;;-0.84;65.16;100706.25;4424096;32;20117;-75
2022/03/07 07:11:24;;;;;;;40.55;20.08;;;;;;;-0.86;65.01;100702.69;4435604;32;20124;-75
2022/03/07 07:13:51;;;;;;;40.45;20.00;;;;;;;-0.90;65.09;100700.81;4439088;32;20452;-75
2022/03/07 07:16:19;;;;;;;48.28;20.45;;;;;;;-0.93;65.00;100696.41;4439219;32;20153;-75
2022/03/07 07:18:46;;;;;;;43.97;19.42;;;;;;;-1.02;65.03;100699.50;4425023;32;20163;-76
2022/03/07 07:21:13;;;;;;;42.10;20.15;;;;;;;-0.98;64.91;100700.53;4425325;32;20215;-74
2022/03/07 07:23:41;;;;;;;37.00;18.60;;;;;;;-0.93;64.73;100703.28;4439448;32;20112;-74
2022/03/07 07:26:08;;;;;;;47.03;21.55;;;;;;;-0.76;64.05;100699.66;4439878;32;20093;-75
2022/03/07 07:28:35;;;;;;;39.55;18.67;;;;;;;-0.58;64.25;100702.94;4425502;32;20101;-73
2022/03/07 07:31:03;;;;;;;41.10;19.58;;;;;;;-0.45;63.25;100706.00;4440115;32;20153;-75
2022/03/07 07:33:30;;;;;;;38.33;18.48;;;;;;;-0.35;63.45;100703.81;4417414;32;20093;-75
2022/03/07 07:35:58;;;;;;;42.67;20.05;;;;;;;-0.26;62.33;100713.59;4423871;32;20093;-74
2022/03/07 07:38:25;;;;;;;42.05;18.48;;;;;;;-0.20;63.04;100718.16;4423098;32;20094;-74
2022/03/07 07:40:55;;;;;;;37.30;19.35;;;;;;;-0.16;61.76;100718.31;4423737;32;20184;-74
2022/03/07 07:43:22;;;;;;;38.95;18.90;;;;;;;-0.23;62.80;100716.31;4423642;32;20453;-76
2022/03/07 07:45:50;;;;;;;44.55;19.60;;;;;;;-0.22;62.32;100723.25;4423702;32;20081;-76
2022/03/07 07:48:17;;;;;;;39.55;18.48;;;;;;;-0.23;62.40;100718.91;4423209;32;20164;-75
2022/03/07 07:50:44;;;;;;;38.10;19.17;;;;;;;-0.18;61.83;100725.13;4429749;32;20101;-77
2022/03/07 07:53:11;;;;;;;45.35;19.20;;;;;;;-0.30;62.55;100727.28;4431088;32;20436;-75
2022/03/07 07:55:39;;;;;;;42.38;18.87;;;;;;;-0.14;62.15;100729.63;4431732;32;20605;-77
2022/03/07 07:58:06;;;;;;;38.17;17.98;;;;;;;-0.25;62.24;100738.66;4417651;32;20430;-78
2022/03/07 08:00:34;;;;;;;38.28;18.20;;;;;;;-0.22;62.25;100736.19;4439104;32;20200;-78
2022/03/07 08:03:01;;;;;;;49.03;20.35;;;;;;;-0.22;62.04;100731.03;4425323;32;20154;-78
2022/03/07 08:05:29;;;;;;;44.72;19.90;;;;;;;-0.03;61.93;100725.72;4424666;32;20448;-76
2022/03/07 08:07:56;;;;;;;41.37;18.55;;;;;;;0.08;61.41;100736.44;4439086;32;20152;-79
2022/03/07 08:10:23;;;;;;;39.20;18.27;;;;;;;0.17;60.81;100736.75;4432940;32;20525;-78
2022/03/07 08:12:51;;;;;;;43.67;18.08;;;;;;;0.37;60.76;100731.41;4408856;32;20496;-79
2022/03/07 08:15:19;;;;;;;38.63;19.02;;;;;;;0.32;60.00;100740.72;4423944;32;20166;-79
2022/03/07 08:17:50;;;;;;;40.22;18.75;;;;;;;0.27;59.82;100750.94;4421645;32;20509;-79
2022/03/07 08:20:20;;;;;;;37.65;18.05;;;;;;;0.23;59.77;100754.25;4421198;32;20104;-79
2022/03/07 08:22:47;;;;;;;39.08;18.75;;;;;;;0.26;59.88;100751.78;4419482;32;20097;-79
2022/03/07 08:25:15;;;;;;;40.17;17.62;;;;;;;0.36;59.75;100753.00;4424226;32;20175;-79
2022/03/07 08:27:42;;;;;;;38.25;18.58;;;;;;;0.56;59.14;100753.66;4433180;32;20253;-79
2022/03/07 08:30:12;;;;;;;38.13;17.77;;;;;;;0.70;58.37;100755.87;4421408;32;20160;-79
2022/03/07 08:32:42;;;;;;;34.67;18.77;;;;;;;0.59;58.29;100754.66;4435109;32;20131;-79
2022/03/07 08:35:11;;;;;;;42.05;19.17;;;;;;;0.53;59.01;100763.91;4435516;32;20111;-79
2022/03/07 08:37:45;;;;;;;42.30;19.95;;;;;;;0.61;58.44;100760.78;4435323;32;20154;-79
2022/03/07 08:40:18;;;;;;;47.92;18.37;;;;;;;0.86;58.11;100751.22;4435255;32;20127;-79
2022/03/07 08:42:45;;;;;;;37.38;17.67;;;;;;;0.80;58.44;100746.72;4433227;32;20128;-78
2022/03/07 08:45:22;;;;;;;31.80;17.30;;;;;;;0.99;57.52;100734.34;4426825;32;20098;-79
2022/03/07 08:48:09;;;;;;;40.20;17.75;;;;;;;1.21;56.58;100726.41;4406406;32;20442;-78
2022/03/07 08:50:37;;;;;;;37.17;17.73;;;;;;;1.66;55.01;100723.44;4405725;32;20117;-80
2022/03/07 08:53:04;;;;;;;33.03;17.45;;;;;;;1.56;55.67;100713.62;4435466;32;20376;-80
2022/03/07 08:55:31;;;;;;;33.63;16.83;;;;;;;1.70;55.27;100709.72;4426579;32;20560;-80
2022/03/07 08:57:59;;;;;;;39.00;18.65;;;;;;;2.17;53.86;100706.69;4405375;32;20096;-79
2022/03/07 09:00:26;;;;;;;36.38;16.75;;;;;;;2.21;53.41;100717.22;4419225;32;20589;-78
2022/03/07 09:02:54;;;;;;;38.25;17.45;;;;;;;2.10;53.34;100721.25;4419843;32;20143;-78
2022/03/07 09:05:21;;;;;;;44.28;19.20;;;;;;;1.89;53.56;100719.78;4405753;32;20157;-78
2022/03/07 09:07:48;;;;;;;32.95;17.60;;;;;;;2.01;54.23;100714.06;4420509;32;20097;-78
2022/03/07 09:10:15;;;;;;;32.55;17.20;;;;;;;2.08;54.33;100721.19;4419623;32;20401;-79
2022/03/07 09:12:43;;;;;;;33.35;16.30;;;;;;;2.48;53.28;100734.41;4419152;32;20186;-79
2022/03/07 09:15:11;;;;;;;36.83;18.08;;;;;;;2.56;52.14;100722.47;4419474;32;20089;-78
2022/03/07 09:17:38;;;;;;;33.75;17.73;;;;;;;2.55;52.37;100726.81;4419830;32;20088;-80
2022/03/07 09:20:07;;;;;;;35.38;17.37;;;;;;;2.55;52.32;100721.59;4420062;32;20217;-77
2022/03/07 09:22:35;;;;;;;44.50;18.10;;;;;;;2.02;53.77;100722.75;4418956;32;20400;-78
2022/03/07 09:25:04;;;;;;;42.60;19.77;;;;;;;2.27;53.17;100722.59;4419289;32;20582;-79
2022/03/07 09:27:32;;;;;;;41.45;19.55;;;;;;;2.19;53.60;100721.50;4419517;32;20108;-77
2022/03/07 09:29:59;;;;;;;54.67;19.25;;;;;;;2.25;53.12;100712.97;4405559;32;20140;-78
2022/03/07 09:32:26;;;;;;;35.45;16.58;;;;;;;2.33;53.52;100720.16;4406829;32;20101;-78
2022/03/07 09:34:53;;;;;;;35.35;17.12;;;;;;;2.42;52.78;100713.44;4430756;32;20700;-78
2022/03/07 09:37:20;;;;;;;36.33;17.75;;;;;;;2.52;52.09;100718.03;4435439;32;20668;-78
2022/03/07 09:39:48;;;;;;;29.37;16.37;;;;;;;2.55;52.04;100728.53;4435140;32;20241;-77
2022/03/07 09:42:15;;;;;;;34.50;17.45;;;;;;;2.45;52.26;100716.13;4421210;32;20187;-79
2022/03/07 09:44:43;;;;;;;32.63;17.27;;;;;;;2.62;52.03;100707.91;4435718;32;20089;-79
2022/03/07 09:47:10;;;;;;;40.35;17.87;;;;;;;2.30;53.26;100714.00;4435700;32;20115;-79
2022/03/07 09:49:38;;;;;;;36.97;17.35;;;;;;;2.03;53.67;100708.91;4435391;32;20096;-79
2022/03/07 09:52:05;;;;;;;33.97;16.27;;;;;;;2.51;53.03;100703.25;4435458;32;20089;-80
2022/03/07 09:54:32;;;;;;;35.38;18.40;;;;;;;2.50;52.57;100709.31;4435873;32;20837;-79
2022/03/07 09:56:59;;;;;;;37.10;17.37;;;;;;;2.36;52.59;100712.41;4434785;32;20176;-80
2022/03/07 09:59:27;;;;;;;35.40;16.55;;;;;;;2.43;52.62;100710.84;4434675;32;20108;-79
2022/03/07 10:02:02;;;;;;;33.22;17.75;;;;;;;2.52;52.29;100700.72;4436504;32;20085;-79
2022/03/07 10:04:32;;;;;;;32.70;16.17;;;;;;;2.67;52.02;100704.53;4426548;32;20162;-79
2022/03/07 10:07:01;;;;;;;36.97;16.58;;;;;;;2.97;51.28;100709.59;4421389;32;20089;-79
2022/03/07 10:09:29;;;;;;;31.40;16.27;;;;;;;3.13;51.07;100711.72;4421018;32;20097;-79
2022/03/07 10:12:00;;;;;;;34.75;16.95;;;;;;;2.95;50.82;100709.56;4420611;32;20097;-78
2022/03/07 10:14:42;;;;;;;32.45;16.65;;;;;;;2.91;50.98;100706.88;4420660;32;20195;-77
2022/03/07 10:17:24;;;;;;;35.92;16.80;;;;;;;2.60;51.63;100712.19;4419728;32;20119;-77
2022/03/07 10:19:55;;;;;;;34.40;16.35;;;;;;;2.68;52.36;100704.56;4435337;32;20176;-78
2022/03/07 10:22:27;;;;;;;36.35;16.35;;;;;;;2.78;51.83;100701.34;4435930;32;20158;-79
2022/03/07 10:25:01;;;;;;;28.33;16.15;;;;;;;2.86;51.27;100709.34;4434052;32;20142;-79
2022/03/07 10:27:30;;;;;;;35.63;16.65;;;;;;;2.88;51.02;100705.94;4436234;32;20101;-78
2022/03/07 10:29:58;;;;;;;37.42;18.15;;;;;;;2.77;51.78;100698.72;4435807;32;20169;-78
2022/03/07 10:32:25;;;;;;;38.70;18.48;;;;;;;2.58;51.95;100697.38;4435739;32;20558;-78
2022/03/07 10:34:53;;;;;;;35.95;18.02;;;;;;;2.37;52.72;100701.19;4430153;32;20144;-79
2022/03/07 10:37:31;;;;;;;39.70;18.40;;;;;;;2.62;52.62;100701.84;4420941;32;20113;-78
2022/03/07 10:39:59;;;;;;;38.10;18.35;;;;;;;2.68;51.52;100701.09;4421128;32;20096;-77
2022/03/07 10:42:26;;;;;;;31.42;17.98;;;;;;;2.61;52.07;100694.84;4421485;32;20093;-78
2022/03/07 10:45:01;;;;;;;36.50;18.77;;;;;;;2.49;52.13;100689.34;4420584;32;20094;-78
2022/03/07 10:47:29;;;;;;;42.72;20.52;;;;;;;2.47;51.25;100686.69;4406600;32;20116;-78
2022/03/07 10:49:59;;;;;;;39.58;19.62;;;;;;;2.24;51.94;100680.03;4421810;32;20105;-78
2022/03/07 10:52:42;;;;;;;49.22;21.92;;;;;;;2.14;52.42;100678.91;4423541;32;20097;-78
2022/03/07 10:55:12;;;;;;;41.53;23.23;;;;;;;2.17;53.10;100668.59;4430159;32;20081;-80
2022/03/07 10:57:42;;;;;;;46.95;21.05;;;;;;;2.25;52.15;100669.66;4430000;32;20758;-78
2022/03/07 11:00:13;;;;;;;53.22;21.90;;;;;;;2.20;51.90;100673.00;4413532;32;20110;-79
2022/03/07 11:02:44;;;;;;;43.05;20.48;;;;;;;2.19;52.21;100664.31;4429147;32;20168;-79
2022/03/07 11:05:13;;;;;;;44.72;20.60;;;;;;;2.17;52.75;100652.97;4415321;32;20164;-79
2022/03/07 11:07:43;;;;;;;44.95;21.52;;;;;;;2.39;51.66;100657.87;4428482;32;20586;-79
2022/03/07 11:10:11;;;;;;;71.35;29.75;;;;;;;2.30;51.59;100659.41;4425608;32;20154;-79
2022/03/07 11:12:39;;;;;;;64.30;29.58;;;;;;;2.35;51.97;100657.78;4407221;32;20112;-79
2022/03/07 11:15:10;;;;;;;78.82;32.08;;;;;;;2.31;51.91;100648.16;4421420;32;20145;-78
2022/03/07 11:17:47;;;;;;;64.55;29.05;;;;;;;2.36;52.17;100647.41;4412811;32;20753;-79